sensor_id;sensor_type;location;lat;lon;timestamp;P1;durP1;ratioP1;P2;durP2;ratioP2
16662;SDS011;8445;51.270;9.434;2022-12-15T00:00:58;43.03;;;23.93;;
16662;SDS011;8445;51.270;9.434;2022-12-15T00:03:43;41.00;;;22.53;;
16662;SDS011;8445;51.270;9.434;2022-12-15T00:06:28;38.20;;;22.73;;
16662;SDS011;8445;51.270;9.434;2022-12-15T00:09:12;38.40;;;22.90;;
16662;SDS011;8445;51.270;9.434;2022-12-15T00:11:55;39.90;;;22.87;;
16662;SDS011;8445;51.270;9.434;2022-12-15T00:14:39;40.73;;;22.63;;
16662;SDS011;8445;51.270;9.434;2022-12-15T00:17:23;39.67;;;23.13;;
16662;SDS011;8445;51.270;9.434;2022-12-15T00:20:07;36.60;;;23.00;;
16662;SDS011;8445;51.270;9.434;2022-12-15T00:22:51;39.40;;;22.83;;
16662;SDS011;8445;51.270;9.434;2022-12-15T00:25:35;32.93;;;21.37;;
16662;SDS011;8445;51.270;9.434;2022-12-15T00:28:19;35.70;;;23.40;;
16662;SDS011;8445;51.270;9.434;2022-12-15T00:31:03;43.53;;;24.03;;
16662;SDS011;8445;51.270;9.434;2022-12-15T00:33:48;40.40;;;23.10;;
16662;SDS011;8445;51.270;9.434;2022-12-15T00:36:32;38.30;;;23.90;;
16662;SDS011;8445;51.270;9.434;2022-12-15T00:39:16;37.97;;;22.97;;
16662;SDS011;8445;51.270;9.434;2022-12-15T00:41:42;40.80;;;26.53;;
16662;SDS011;8445;51.270;9.434;2022-12-15T00:44:07;44.70;;;26.43;;
16662;SDS011;8445;51.270;9.434;2022-12-15T00:46:33;43.33;;;24.97;;
16662;SDS011;8445;51.270;9.434;2022-12-15T00:49:17;40.83;;;25.73;;
16662;SDS011;8445;51.270;9.434;2022-12-15T00:52:01;45.60;;;26.03;;
16662;SDS011;8445;51.270;9.434;2022-12-15T00:54:45;43.60;;;25.30;;
16662;SDS011;8445;51.270;9.434;2022-12-15T00:57:29;44.97;;;25.20;;
16662;SDS011;8445;51.270;9.434;2022-12-15T01:00:13;40.53;;;23.57;;
16662;SDS011;8445;51.270;9.434;2022-12-15T01:02:57;40.63;;;23.60;;
16662;SDS011;8445;51.270;9.434;2022-12-15T01:05:41;41.30;;;23.47;;
16662;SDS011;8445;51.270;9.434;2022-12-15T01:08:24;43.60;;;24.57;;
16662;SDS011;8445;51.270;9.434;2022-12-15T01:11:10;35.60;;;22.57;;
16662;SDS011;8445;51.270;9.434;2022-12-15T01:13:54;32.73;;;22.00;;
16662;SDS011;8445;51.270;9.434;2022-12-15T01:16:37;37.83;;;24.07;;
16662;SDS011;8445;51.270;9.434;2022-12-15T01:19:22;40.17;;;25.17;;
16662;SDS011;8445;51.270;9.434;2022-12-15T01:22:06;45.03;;;26.37;;
16662;SDS011;8445;51.270;9.434;2022-12-15T01:24:32;40.93;;;25.77;;
16662;SDS011;8445;51.270;9.434;2022-12-15T01:26:57;43.37;;;24.33;;
16662;SDS011;8445;51.270;9.434;2022-12-15T01:29:23;38.43;;;23.90;;
16662;SDS011;8445;51.270;9.434;2022-12-15T01:31:49;44.73;;;25.43;;
16662;SDS011;8445;51.270;9.434;2022-12-15T01:34:15;39.90;;;24.57;;
16662;SDS011;8445;51.270;9.434;2022-12-15T01:36:41;42.27;;;24.67;;
16662;SDS011;8445;51.270;9.434;2022-12-15T01:39:06;37.87;;;23.63;;
16662;SDS011;8445;51.270;9.434;2022-12-15T01:41:33;38.77;;;23.70;;
16662;SDS011;8445;51.270;9.434;2022-12-15T01:46:49;40.70;;;25.07;;
16662;SDS011;8445;51.270;9.434;2022-12-15T01:49:24;37.73;;;24.97;;
16662;SDS011;8445;51.270;9.434;2022-12-15T01:51:59;43.07;;;26.37;;
16662;SDS011;8445;51.270;9.434;2022-12-15T01:57:02;36.23;;;22.63;;
16662;SDS011;8445;51.270;9.434;2022-12-15T01:59:38;43.07;;;25.47;;
16662;SDS011;8445;51.270;9.434;2022-12-15T02:02:13;39.47;;;22.53;;
16662;SDS011;8445;51.270;9.434;2022-12-15T02:04:39;39.13;;;24.13;;
16662;SDS011;8445;51.270;9.434;2022-12-15T02:07:05;36.83;;;22.60;;
16662;SDS011;8445;51.270;9.434;2022-12-15T02:09:33;38.97;;;24.37;;
16662;SDS011;8445;51.270;9.434;2022-12-15T02:12:11;41.83;;;24.77;;
16662;SDS011;8445;51.270;9.434;2022-12-15T02:18:09;42.53;;;23.30;;
16662;SDS011;8445;51.270;9.434;2022-12-15T02:26:16;41.03;;;24.27;;
16662;SDS011;8445;51.270;9.434;2022-12-15T02:32:06;46.70;;;25.27;;
16662;SDS011;8445;51.270;9.434;2022-12-15T02:34:43;38.90;;;22.80;;
16662;SDS011;8445;51.270;9.434;2022-12-15T02:39:53;37.57;;;22.87;;
16662;SDS011;8445;51.270;9.434;2022-12-15T02:42:19;39.80;;;22.87;;
16662;SDS011;8445;51.270;9.434;2022-12-15T02:44:50;44.93;;;25.47;;
16662;SDS011;8445;51.270;9.434;2022-12-15T02:55:56;38.23;;;25.60;;
16662;SDS011;8445;51.270;9.434;2022-12-15T03:02:12;31.63;;;20.60;;
16662;SDS011;8445;51.270;9.434;2022-12-15T03:04:26;36.83;;;21.07;;
16662;SDS011;8445;51.270;9.434;2022-12-15T03:06:54;40.03;;;21.87;;
16662;SDS011;8445;51.270;9.434;2022-12-15T03:09:21;40.10;;;21.67;;
16662;SDS011;8445;51.270;9.434;2022-12-15T03:11:47;46.83;;;27.30;;
16662;SDS011;8445;51.270;9.434;2022-12-15T03:14:17;39.40;;;26.17;;
16662;SDS011;8445;51.270;9.434;2022-12-15T03:16:59;35.07;;;21.53;;
16662;SDS011;8445;51.270;9.434;2022-12-15T03:19:30;39.80;;;22.77;;
16662;SDS011;8445;51.270;9.434;2022-12-15T03:22:00;39.57;;;22.90;;
16662;SDS011;8445;51.270;9.434;2022-12-15T03:24:29;40.37;;;23.20;;
16662;SDS011;8445;51.270;9.434;2022-12-15T03:26:56;48.47;;;24.70;;
16662;SDS011;8445;51.270;9.434;2022-12-15T03:29:23;40.87;;;23.63;;
16662;SDS011;8445;51.270;9.434;2022-12-15T03:31:49;43.90;;;25.03;;
16662;SDS011;8445;51.270;9.434;2022-12-15T03:34:14;40.50;;;25.40;;
16662;SDS011;8445;51.270;9.434;2022-12-15T03:36:40;47.27;;;31.00;;
16662;SDS011;8445;51.270;9.434;2022-12-15T03:39:06;49.13;;;26.00;;
16662;SDS011;8445;51.270;9.434;2022-12-15T03:41:34;44.27;;;24.60;;
16662;SDS011;8445;51.270;9.434;2022-12-15T03:44:00;42.67;;;24.40;;
16662;SDS011;8445;51.270;9.434;2022-12-15T03:46:25;42.30;;;27.53;;
16662;SDS011;8445;51.270;9.434;2022-12-15T03:48:51;42.83;;;24.77;;
16662;SDS011;8445;51.270;9.434;2022-12-15T03:51:18;42.20;;;25.23;;
16662;SDS011;8445;51.270;9.434;2022-12-15T03:53:44;44.53;;;25.37;;
16662;SDS011;8445;51.270;9.434;2022-12-15T03:56:13;47.67;;;27.27;;
16662;SDS011;8445;51.270;9.434;2022-12-15T03:58:39;45.07;;;26.23;;
16662;SDS011;8445;51.270;9.434;2022-12-15T04:01:09;48.40;;;31.40;;
16662;SDS011;8445;51.270;9.434;2022-12-15T04:03:54;43.80;;;25.80;;
16662;SDS011;8445;51.270;9.434;2022-12-15T04:06:20;44.50;;;26.00;;
16662;SDS011;8445;51.270;9.434;2022-12-15T04:08:46;43.37;;;24.60;;
16662;SDS011;8445;51.270;9.434;2022-12-15T04:11:11;42.13;;;24.73;;
16662;SDS011;8445;51.270;9.434;2022-12-15T04:13:37;42.07;;;25.23;;
16662;SDS011;8445;51.270;9.434;2022-12-15T04:16:03;39.87;;;24.80;;
16662;SDS011;8445;51.270;9.434;2022-12-15T04:18:30;41.27;;;23.67;;
16662;SDS011;8445;51.270;9.434;2022-12-15T04:20:58;40.27;;;24.03;;
16662;SDS011;8445;51.270;9.434;2022-12-15T04:23:25;39.67;;;23.97;;
16662;SDS011;8445;51.270;9.434;2022-12-15T04:25:51;35.40;;;22.27;;
16662;SDS011;8445;51.270;9.434;2022-12-15T04:28:38;40.60;;;23.33;;
16662;SDS011;8445;51.270;9.434;2022-12-15T04:31:31;38.37;;;22.57;;
16662;SDS011;8445;51.270;9.434;2022-12-15T04:34:18;34.37;;;20.87;;
16662;SDS011;8445;51.270;9.434;2022-12-15T04:37:09;32.70;;;21.27;;
16662;SDS011;8445;51.270;9.434;2022-12-15T04:39:59;34.20;;;22.07;;
16662;SDS011;8445;51.270;9.434;2022-12-15T04:42:45;35.07;;;21.10;;
16662;SDS011;8445;51.270;9.434;2022-12-15T04:45:33;31.60;;;20.03;;
16662;SDS011;8445;51.270;9.434;2022-12-15T04:48:20;33.13;;;20.10;;
16662;SDS011;8445;51.270;9.434;2022-12-15T04:51:06;34.00;;;20.07;;
16662;SDS011;8445;51.270;9.434;2022-12-15T04:53:53;33.27;;;19.80;;
16662;SDS011;8445;51.270;9.434;2022-12-15T04:56:39;35.30;;;21.03;;
16662;SDS011;8445;51.270;9.434;2022-12-15T04:59:25;36.20;;;20.73;;
16662;SDS011;8445;51.270;9.434;2022-12-15T05:02:12;35.63;;;20.83;;
16662;SDS011;8445;51.270;9.434;2022-12-15T05:04:57;44.90;;;22.00;;
16662;SDS011;8445;51.270;9.434;2022-12-15T05:07:45;36.70;;;21.33;;
16662;SDS011;8445;51.270;9.434;2022-12-15T05:10:33;30.93;;;20.17;;
16662;SDS011;8445;51.270;9.434;2022-12-15T05:13:18;35.33;;;20.43;;
16662;SDS011;8445;51.270;9.434;2022-12-15T05:16:04;36.20;;;20.90;;
16662;SDS011;8445;51.270;9.434;2022-12-15T05:18:49;36.50;;;21.10;;
16662;SDS011;8445;51.270;9.434;2022-12-15T05:21:34;41.33;;;23.00;;
16662;SDS011;8445;51.270;9.434;2022-12-15T05:24:19;39.63;;;22.00;;
16662;SDS011;8445;51.270;9.434;2022-12-15T05:27:04;35.97;;;21.57;;
16662;SDS011;8445;51.270;9.434;2022-12-15T05:29:49;37.23;;;22.80;;
16662;SDS011;8445;51.270;9.434;2022-12-15T05:32:34;41.00;;;22.20;;
16662;SDS011;8445;51.270;9.434;2022-12-15T05:35:00;40.10;;;23.00;;
16662;SDS011;8445;51.270;9.434;2022-12-15T05:37:27;40.03;;;22.17;;
16662;SDS011;8445;51.270;9.434;2022-12-15T05:39:53;40.30;;;22.77;;
16662;SDS011;8445;51.270;9.434;2022-12-15T05:42:19;40.83;;;23.03;;
16662;SDS011;8445;51.270;9.434;2022-12-15T05:44:45;39.50;;;23.70;;
16662;SDS011;8445;51.270;9.434;2022-12-15T05:47:12;42.40;;;23.70;;
16662;SDS011;8445;51.270;9.434;2022-12-15T05:49:38;40.27;;;23.17;;
16662;SDS011;8445;51.270;9.434;2022-12-15T05:52:04;44.60;;;23.07;;
16662;SDS011;8445;51.270;9.434;2022-12-15T05:54:30;40.03;;;22.93;;
16662;SDS011;8445;51.270;9.434;2022-12-15T05:56:56;45.00;;;23.90;;
16662;SDS011;8445;51.270;9.434;2022-12-15T05:59:21;43.37;;;23.20;;
16662;SDS011;8445;51.270;9.434;2022-12-15T06:01:47;41.90;;;23.80;;
16662;SDS011;8445;51.270;9.434;2022-12-15T06:04:12;43.80;;;23.17;;
16662;SDS011;8445;51.270;9.434;2022-12-15T06:06:38;47.47;;;24.27;;
16662;SDS011;8445;51.270;9.434;2022-12-15T06:09:04;40.73;;;22.90;;
16662;SDS011;8445;51.270;9.434;2022-12-15T06:11:30;44.57;;;22.43;;
16662;SDS011;8445;51.270;9.434;2022-12-15T06:13:56;39.37;;;22.03;;
16662;SDS011;8445;51.270;9.434;2022-12-15T06:16:22;41.40;;;22.67;;
16662;SDS011;8445;51.270;9.434;2022-12-15T06:18:52;43.83;;;21.60;;
16662;SDS011;8445;51.270;9.434;2022-12-15T06:21:20;41.50;;;22.07;;
16662;SDS011;8445;51.270;9.434;2022-12-15T06:23:48;44.70;;;21.13;;
16662;SDS011;8445;51.270;9.434;2022-12-15T06:26:16;49.40;;;22.10;;
16662;SDS011;8445;51.270;9.434;2022-12-15T06:28:48;49.37;;;20.90;;
16662;SDS011;8445;51.270;9.434;2022-12-15T06:31:14;40.13;;;20.30;;
16662;SDS011;8445;51.270;9.434;2022-12-15T06:33:42;40.07;;;21.00;;
16662;SDS011;8445;51.270;9.434;2022-12-15T06:36:09;41.10;;;20.73;;
16662;SDS011;8445;51.270;9.434;2022-12-15T06:38:39;42.47;;;20.70;;
16662;SDS011;8445;51.270;9.434;2022-12-15T06:41:07;42.67;;;21.00;;
16662;SDS011;8445;51.270;9.434;2022-12-15T06:43:35;44.07;;;21.43;;
16662;SDS011;8445;51.270;9.434;2022-12-15T06:46:04;42.33;;;20.30;;
16662;SDS011;8445;51.270;9.434;2022-12-15T06:48:34;48.20;;;21.20;;
16662;SDS011;8445;51.270;9.434;2022-12-15T06:51:04;37.60;;;19.87;;
16662;SDS011;8445;51.270;9.434;2022-12-15T06:53:37;40.03;;;20.77;;
16662;SDS011;8445;51.270;9.434;2022-12-15T06:56:06;37.83;;;19.83;;
16662;SDS011;8445;51.270;9.434;2022-12-15T06:58:37;38.17;;;21.53;;
16662;SDS011;8445;51.270;9.434;2022-12-15T07:01:05;36.20;;;20.73;;
16662;SDS011;8445;51.270;9.434;2022-12-15T07:03:32;42.00;;;19.83;;
16662;SDS011;8445;51.270;9.434;2022-12-15T07:06:02;38.70;;;20.13;;
16662;SDS011;8445;51.270;9.434;2022-12-15T07:08:32;38.13;;;20.00;;
16662;SDS011;8445;51.270;9.434;2022-12-15T07:10:57;44.50;;;19.33;;
16662;SDS011;8445;51.270;9.434;2022-12-15T07:13:23;38.27;;;19.23;;
16662;SDS011;8445;51.270;9.434;2022-12-15T07:15:49;37.23;;;19.97;;
16662;SDS011;8445;51.270;9.434;2022-12-15T07:18:15;37.57;;;20.37;;
16662;SDS011;8445;51.270;9.434;2022-12-15T07:20:41;50.20;;;20.73;;
16662;SDS011;8445;51.270;9.434;2022-12-15T07:23:08;42.70;;;20.53;;
16662;SDS011;8445;51.270;9.434;2022-12-15T07:25:34;39.33;;;19.90;;
16662;SDS011;8445;51.270;9.434;2022-12-15T07:28:00;34.23;;;19.07;;
16662;SDS011;8445;51.270;9.434;2022-12-15T07:30:26;43.97;;;18.93;;
16662;SDS011;8445;51.270;9.434;2022-12-15T07:32:51;43.20;;;19.97;;
16662;SDS011;8445;51.270;9.434;2022-12-15T07:35:17;37.73;;;19.23;;
16662;SDS011;8445;51.270;9.434;2022-12-15T07:37:42;36.43;;;18.63;;
16662;SDS011;8445;51.270;9.434;2022-12-15T07:40:08;43.47;;;19.17;;
16662;SDS011;8445;51.270;9.434;2022-12-15T07:42:34;42.70;;;21.87;;
16662;SDS011;8445;51.270;9.434;2022-12-15T07:45:01;39.57;;;19.63;;
16662;SDS011;8445;51.270;9.434;2022-12-15T07:47:26;39.80;;;19.10;;
16662;SDS011;8445;51.270;9.434;2022-12-15T07:49:52;42.33;;;20.20;;
16662;SDS011;8445;51.270;9.434;2022-12-15T07:52:20;38.70;;;19.23;;
16662;SDS011;8445;51.270;9.434;2022-12-15T07:54:46;37.27;;;20.43;;
16662;SDS011;8445;51.270;9.434;2022-12-15T07:57:15;38.93;;;18.57;;
16662;SDS011;8445;51.270;9.434;2022-12-15T07:59:41;41.40;;;20.23;;
16662;SDS011;8445;51.270;9.434;2022-12-15T08:02:08;39.60;;;19.67;;
16662;SDS011;8445;51.270;9.434;2022-12-15T08:04:34;38.87;;;18.73;;
16662;SDS011;8445;51.270;9.434;2022-12-15T08:07:00;36.73;;;19.10;;
16662;SDS011;8445;51.270;9.434;2022-12-15T08:09:25;35.23;;;18.90;;
16662;SDS011;8445;51.270;9.434;2022-12-15T08:11:51;42.77;;;20.43;;
16662;SDS011;8445;51.270;9.434;2022-12-15T08:14:16;36.90;;;20.20;;
16662;SDS011;8445;51.270;9.434;2022-12-15T08:16:42;34.53;;;19.00;;
16662;SDS011;8445;51.270;9.434;2022-12-15T08:19:12;34.23;;;18.47;;
16662;SDS011;8445;51.270;9.434;2022-12-15T08:21:39;34.03;;;18.57;;
16662;SDS011;8445;51.270;9.434;2022-12-15T08:24:06;35.27;;;18.83;;
16662;SDS011;8445;51.270;9.434;2022-12-15T08:26:33;37.07;;;18.83;;
16662;SDS011;8445;51.270;9.434;2022-12-15T08:29:00;39.03;;;18.97;;
16662;SDS011;8445;51.270;9.434;2022-12-15T08:31:28;42.90;;;20.07;;
16662;SDS011;8445;51.270;9.434;2022-12-15T08:33:55;39.27;;;19.27;;
16662;SDS011;8445;51.270;9.434;2022-12-15T08:36:21;33.17;;;18.00;;
16662;SDS011;8445;51.270;9.434;2022-12-15T08:38:47;36.57;;;18.90;;
16662;SDS011;8445;51.270;9.434;2022-12-15T08:43:44;40.60;;;19.43;;
16662;SDS011;8445;51.270;9.434;2022-12-15T08:46:11;38.90;;;18.93;;
16662;SDS011;8445;51.270;9.434;2022-12-15T08:48:37;36.37;;;17.87;;
16662;SDS011;8445;51.270;9.434;2022-12-15T08:51:03;33.93;;;18.93;;
16662;SDS011;8445;51.270;9.434;2022-12-15T08:53:28;32.30;;;17.70;;
16662;SDS011;8445;51.270;9.434;2022-12-15T08:55:54;32.90;;;18.47;;
16662;SDS011;8445;51.270;9.434;2022-12-15T08:58:19;34.63;;;17.77;;
16662;SDS011;8445;51.270;9.434;2022-12-15T09:00:45;33.00;;;18.93;;
16662;SDS011;8445;51.270;9.434;2022-12-15T09:03:10;38.80;;;19.93;;
16662;SDS011;8445;51.270;9.434;2022-12-15T09:05:36;32.57;;;17.77;;
16662;SDS011;8445;51.270;9.434;2022-12-15T09:08:03;32.47;;;17.53;;
16662;SDS011;8445;51.270;9.434;2022-12-15T09:10:29;32.67;;;18.73;;
16662;SDS011;8445;51.270;9.434;2022-12-15T09:12:54;31.13;;;17.40;;
16662;SDS011;8445;51.270;9.434;2022-12-15T09:15:20;32.77;;;18.40;;
16662;SDS011;8445;51.270;9.434;2022-12-15T09:17:46;37.70;;;18.23;;
16662;SDS011;8445;51.270;9.434;2022-12-15T09:20:11;34.47;;;19.27;;
16662;SDS011;8445;51.270;9.434;2022-12-15T09:22:38;33.50;;;18.20;;
16662;SDS011;8445;51.270;9.434;2022-12-15T09:25:07;33.60;;;18.47;;
16662;SDS011;8445;51.270;9.434;2022-12-15T09:27:33;42.67;;;20.43;;
16662;SDS011;8445;51.270;9.434;2022-12-15T09:29:59;36.17;;;19.33;;
16662;SDS011;8445;51.270;9.434;2022-12-15T09:32:26;34.40;;;19.47;;
16662;SDS011;8445;51.270;9.434;2022-12-15T09:34:51;37.33;;;19.73;;
16662;SDS011;8445;51.270;9.434;2022-12-15T09:37:18;35.20;;;20.00;;
16662;SDS011;8445;51.270;9.434;2022-12-15T09:39:44;37.47;;;20.47;;
16662;SDS011;8445;51.270;9.434;2022-12-15T09:42:22;35.93;;;19.67;;
16662;SDS011;8445;51.270;9.434;2022-12-15T09:44:52;36.93;;;19.50;;
16662;SDS011;8445;51.270;9.434;2022-12-15T09:47:31;37.80;;;19.43;;
16662;SDS011;8445;51.270;9.434;2022-12-15T09:50:07;30.90;;;18.33;;
16662;SDS011;8445;51.270;9.434;2022-12-15T09:55:20;36.60;;;18.37;;
16662;SDS011;8445;51.270;9.434;2022-12-15T10:00:36;28.27;;;17.50;;
16662;SDS011;8445;51.270;9.434;2022-12-15T10:03:16;34.30;;;19.40;;
16662;SDS011;8445;51.270;9.434;2022-12-15T10:06:11;32.30;;;18.30;;
16662;SDS011;8445;51.270;9.434;2022-12-15T10:08:40;32.43;;;18.20;;
16662;SDS011;8445;51.270;9.434;2022-12-15T10:13:51;31.67;;;17.97;;
16662;SDS011;8445;51.270;9.434;2022-12-15T10:16:24;31.73;;;17.70;;
16662;SDS011;8445;51.270;9.434;2022-12-15T10:18:58;33.50;;;19.03;;
16662;SDS011;8445;51.270;9.434;2022-12-15T10:21:31;35.33;;;19.13;;
16662;SDS011;8445;51.270;9.434;2022-12-15T10:24:07;29.97;;;17.40;;
16662;SDS011;8445;51.270;9.434;2022-12-15T10:26:39;35.27;;;18.47;;
16662;SDS011;8445;51.270;9.434;2022-12-15T10:29:12;30.67;;;17.93;;
16662;SDS011;8445;51.270;9.434;2022-12-15T10:32:13;33.60;;;18.37;;
16662;SDS011;8445;51.270;9.434;2022-12-15T10:34:42;27.20;;;17.10;;
16662;SDS011;8445;51.270;9.434;2022-12-15T10:37:11;35.77;;;17.77;;
16662;SDS011;8445;51.270;9.434;2022-12-15T10:39:42;29.27;;;17.63;;
16662;SDS011;8445;51.270;9.434;2022-12-15T10:42:21;29.53;;;17.63;;
16662;SDS011;8445;51.270;9.434;2022-12-15T10:44:50;34.03;;;18.43;;
16662;SDS011;8445;51.270;9.434;2022-12-15T10:47:28;29.67;;;17.63;;
16662;SDS011;8445;51.270;9.434;2022-12-15T10:52:45;29.37;;;17.27;;
16662;SDS011;8445;51.270;9.434;2022-12-15T10:58:19;32.70;;;18.17;;
16662;SDS011;8445;51.270;9.434;2022-12-15T11:00:46;28.23;;;15.60;;
16662;SDS011;8445;51.270;9.434;2022-12-15T11:03:28;29.50;;;15.93;;
16662;SDS011;8445;51.270;9.434;2022-12-15T11:06:00;27.77;;;16.13;;
16662;SDS011;8445;51.270;9.434;2022-12-15T11:08:25;32.27;;;17.77;;
16662;SDS011;8445;51.270;9.434;2022-12-15T11:10:57;30.50;;;18.93;;
16662;SDS011;8445;51.270;9.434;2022-12-15T11:13:41;32.23;;;18.43;;
16662;SDS011;8445;51.270;9.434;2022-12-15T11:16:35;31.03;;;17.83;;
16662;SDS011;8445;51.270;9.434;2022-12-15T11:19:12;32.03;;;17.93;;
16662;SDS011;8445;51.270;9.434;2022-12-15T11:21:47;29.43;;;17.47;;
16662;SDS011;8445;51.270;9.434;2022-12-15T11:24:27;31.67;;;18.33;;
16662;SDS011;8445;51.270;9.434;2022-12-15T11:27:01;29.37;;;18.23;;
16662;SDS011;8445;51.270;9.434;2022-12-15T11:32:11;36.53;;;19.30;;
16662;SDS011;8445;51.270;9.434;2022-12-15T11:34:39;31.53;;;18.77;;
16662;SDS011;8445;51.270;9.434;2022-12-15T11:39:54;31.30;;;18.27;;
16662;SDS011;8445;51.270;9.434;2022-12-15T11:42:45;28.00;;;16.17;;
16662;SDS011;8445;51.270;9.434;2022-12-15T11:45:15;33.13;;;19.03;;
16662;SDS011;8445;51.270;9.434;2022-12-15T11:54:06;37.30;;;20.07;;
16662;SDS011;8445;51.270;9.434;2022-12-15T11:56:18;33.80;;;18.13;;
16662;SDS011;8445;51.270;9.434;2022-12-15T12:07:51;34.53;;;18.57;;
16662;SDS011;8445;51.270;9.434;2022-12-15T12:16:02;33.17;;;18.70;;
16662;SDS011;8445;51.270;9.434;2022-12-15T12:18:41;33.67;;;19.00;;
16662;SDS011;8445;51.270;9.434;2022-12-15T12:21:16;34.33;;;18.70;;
16662;SDS011;8445;51.270;9.434;2022-12-15T12:26:30;31.47;;;18.80;;
16662;SDS011;8445;51.270;9.434;2022-12-15T12:29:21;34.43;;;18.77;;
16662;SDS011;8445;51.270;9.434;2022-12-15T12:43:29;32.93;;;18.73;;
16662;SDS011;8445;51.270;9.434;2022-12-15T12:46:02;37.13;;;19.67;;
16662;SDS011;8445;51.270;9.434;2022-12-15T12:48:50;34.00;;;19.50;;
16662;SDS011;8445;51.270;9.434;2022-12-15T12:51:24;35.57;;;19.10;;
16662;SDS011;8445;51.270;9.434;2022-12-15T12:53:54;34.30;;;19.23;;
16662;SDS011;8445;51.270;9.434;2022-12-15T12:56:53;32.43;;;18.20;;
16662;SDS011;8445;51.270;9.434;2022-12-15T13:01:53;36.83;;;20.87;;
16662;SDS011;8445;51.270;9.434;2022-12-15T13:09:22;35.70;;;19.13;;
16662;SDS011;8445;51.270;9.434;2022-12-15T13:16:54;50.07;;;26.27;;
16662;SDS011;8445;51.270;9.434;2022-12-15T13:22:36;34.67;;;18.90;;
16662;SDS011;8445;51.270;9.434;2022-12-15T13:27:51;35.23;;;19.80;;
16662;SDS011;8445;51.270;9.434;2022-12-15T13:30:21;37.53;;;20.87;;
16662;SDS011;8445;51.270;9.434;2022-12-15T13:32:52;35.03;;;19.83;;
16662;SDS011;8445;51.270;9.434;2022-12-15T13:35:37;37.80;;;19.27;;
16662;SDS011;8445;51.270;9.434;2022-12-15T13:38:07;36.97;;;19.93;;
16662;SDS011;8445;51.270;9.434;2022-12-15T13:40:52;34.93;;;19.30;;
16662;SDS011;8445;51.270;9.434;2022-12-15T13:45:59;43.80;;;21.30;;
16662;SDS011;8445;51.270;9.434;2022-12-15T13:48:43;39.47;;;20.77;;
16662;SDS011;8445;51.270;9.434;2022-12-15T13:51:18;37.37;;;20.87;;
16662;SDS011;8445;51.270;9.434;2022-12-15T13:53:52;43.30;;;20.87;;
16662;SDS011;8445;51.270;9.434;2022-12-15T13:59:17;36.17;;;19.20;;
16662;SDS011;8445;51.270;9.434;2022-12-15T14:01:50;42.03;;;19.90;;
16662;SDS011;8445;51.270;9.434;2022-12-15T14:04:18;37.07;;;19.77;;
16662;SDS011;8445;51.270;9.434;2022-12-15T14:06:49;40.43;;;21.30;;
16662;SDS011;8445;51.270;9.434;2022-12-15T14:09:36;37.43;;;20.70;;
16662;SDS011;8445;51.270;9.434;2022-12-15T14:12:06;36.40;;;20.23;;
16662;SDS011;8445;51.270;9.434;2022-12-15T14:14:36;40.97;;;19.57;;
16662;SDS011;8445;51.270;9.434;2022-12-15T14:17:11;36.97;;;19.97;;
16662;SDS011;8445;51.270;9.434;2022-12-15T14:19:40;36.87;;;20.27;;
16662;SDS011;8445;51.270;9.434;2022-12-15T14:22:21;35.73;;;20.40;;
16662;SDS011;8445;51.270;9.434;2022-12-15T14:24:48;33.47;;;18.40;;
16662;SDS011;8445;51.270;9.434;2022-12-15T14:27:22;39.60;;;20.07;;
16662;SDS011;8445;51.270;9.434;2022-12-15T14:29:49;36.67;;;19.67;;
16662;SDS011;8445;51.270;9.434;2022-12-15T14:32:14;34.67;;;18.87;;
16662;SDS011;8445;51.270;9.434;2022-12-15T14:34:40;36.63;;;19.13;;
16662;SDS011;8445;51.270;9.434;2022-12-15T14:37:14;44.30;;;20.00;;
16662;SDS011;8445;51.270;9.434;2022-12-15T14:39:44;34.80;;;18.87;;
16662;SDS011;8445;51.270;9.434;2022-12-15T14:42:21;36.00;;;19.23;;
16662;SDS011;8445;51.270;9.434;2022-12-15T14:45:02;42.83;;;20.57;;
16662;SDS011;8445;51.270;9.434;2022-12-15T14:47:33;43.70;;;20.23;;
16662;SDS011;8445;51.270;9.434;2022-12-15T14:50:03;41.30;;;20.83;;
16662;SDS011;8445;51.270;9.434;2022-12-15T14:52:39;40.20;;;19.87;;
16662;SDS011;8445;51.270;9.434;2022-12-15T15:00:57;42.43;;;20.20;;
16662;SDS011;8445;51.270;9.434;2022-12-15T15:03:38;37.70;;;20.03;;
16662;SDS011;8445;51.270;9.434;2022-12-15T15:08:51;40.90;;;20.47;;
16662;SDS011;8445;51.270;9.434;2022-12-15T15:14:02;45.97;;;21.23;;
16662;SDS011;8445;51.270;9.434;2022-12-15T15:16:39;45.63;;;20.10;;
16662;SDS011;8445;51.270;9.434;2022-12-15T15:19:18;43.63;;;20.10;;
16662;SDS011;8445;51.270;9.434;2022-12-15T15:21:51;43.70;;;21.00;;
16662;SDS011;8445;51.270;9.434;2022-12-15T15:24:24;41.77;;;21.77;;
16662;SDS011;8445;51.270;9.434;2022-12-15T15:30:13;48.23;;;23.53;;
16662;SDS011;8445;51.270;9.434;2022-12-15T15:32:51;52.77;;;23.73;;
16662;SDS011;8445;51.270;9.434;2022-12-15T15:35:32;50.67;;;23.30;;
16662;SDS011;8445;51.270;9.434;2022-12-15T15:38:23;51.37;;;23.20;;
16662;SDS011;8445;51.270;9.434;2022-12-15T15:41:20;43.43;;;20.77;;
16662;SDS011;8445;51.270;9.434;2022-12-15T15:43:55;49.63;;;22.47;;
16662;SDS011;8445;51.270;9.434;2022-12-15T15:46:30;47.10;;;23.63;;
16662;SDS011;8445;51.270;9.434;2022-12-15T15:48:59;51.80;;;25.00;;
16662;SDS011;8445;51.270;9.434;2022-12-15T15:51:30;56.40;;;26.63;;
16662;SDS011;8445;51.270;9.434;2022-12-15T15:53:57;50.70;;;24.97;;
16662;SDS011;8445;51.270;9.434;2022-12-15T15:56:24;52.23;;;26.17;;
16662;SDS011;8445;51.270;9.434;2022-12-15T15:58:52;56.37;;;24.30;;
16662;SDS011;8445;51.270;9.434;2022-12-15T16:01:20;57.80;;;24.80;;
16662;SDS011;8445;51.270;9.434;2022-12-15T16:04:06;53.50;;;22.80;;
16662;SDS011;8445;51.270;9.434;2022-12-15T16:06:31;49.93;;;23.87;;
16662;SDS011;8445;51.270;9.434;2022-12-15T16:08:57;54.43;;;26.10;;
16662;SDS011;8445;51.270;9.434;2022-12-15T16:11:24;54.90;;;24.43;;
16662;SDS011;8445;51.270;9.434;2022-12-15T16:13:52;53.67;;;24.23;;
16662;SDS011;8445;51.270;9.434;2022-12-15T16:16:20;60.50;;;25.60;;
16662;SDS011;8445;51.270;9.434;2022-12-15T16:18:51;56.33;;;25.57;;
16662;SDS011;8445;51.270;9.434;2022-12-15T16:21:21;52.03;;;24.77;;
16662;SDS011;8445;51.270;9.434;2022-12-15T16:23:54;52.10;;;24.37;;
16662;SDS011;8445;51.270;9.434;2022-12-15T16:26:29;49.63;;;23.83;;
16662;SDS011;8445;51.270;9.434;2022-12-15T16:29:10;53.57;;;24.13;;
16662;SDS011;8445;51.270;9.434;2022-12-15T16:31:43;54.70;;;24.93;;
16662;SDS011;8445;51.270;9.434;2022-12-15T16:34:13;52.83;;;25.33;;
16662;SDS011;8445;51.270;9.434;2022-12-15T16:36:43;54.40;;;26.53;;
16662;SDS011;8445;51.270;9.434;2022-12-15T16:42:00;59.37;;;25.67;;
16662;SDS011;8445;51.270;9.434;2022-12-15T16:44:30;51.23;;;24.77;;
16662;SDS011;8445;51.270;9.434;2022-12-15T16:46:58;55.03;;;25.67;;
16662;SDS011;8445;51.270;9.434;2022-12-15T16:49:28;72.80;;;28.23;;
16662;SDS011;8445;51.270;9.434;2022-12-15T16:52:03;65.87;;;27.63;;
16662;SDS011;8445;51.270;9.434;2022-12-15T16:54:35;61.67;;;27.60;;
16662;SDS011;8445;51.270;9.434;2022-12-15T16:57:08;70.50;;;30.87;;
16662;SDS011;8445;51.270;9.434;2022-12-15T16:59:44;65.17;;;29.90;;
16662;SDS011;8445;51.270;9.434;2022-12-15T17:04:57;62.37;;;28.03;;
16662;SDS011;8445;51.270;9.434;2022-12-15T17:07:33;59.57;;;26.70;;
16662;SDS011;8445;51.270;9.434;2022-12-15T17:10:02;54.10;;;26.53;;
16662;SDS011;8445;51.270;9.434;2022-12-15T17:12:34;62.73;;;26.80;;
16662;SDS011;8445;51.270;9.434;2022-12-15T17:15:20;51.87;;;25.47;;
16662;SDS011;8445;51.270;9.434;2022-12-15T17:17:53;54.53;;;24.37;;